sensor_id;sensor_type;location;lat;lon;timestamp;P1;durP1;ratioP1;P2;durP2;ratioP2
20792;SDS011;10556;-33.662;151.094;2023-10-09T00:04:52;3.03;;;0.30;;
20792;SDS011;10556;-33.662;151.094;2023-10-09T00:09:53;1.07;;;0.37;;
20792;SDS011;10556;-33.662;151.094;2023-10-09T00:14:55;0.70;;;0.20;;
20792;SDS011;10556;-33.662;151.094;2023-10-09T00:19:58;2.47;;;0.30;;
20792;SDS011;10556;-33.662;151.094;2023-10-09T00:24:59;0.97;;;0.50;;
20792;SDS011;10556;-33.662;151.094;2023-10-09T00:30:00;1.50;;;0.20;;
20792;SDS011;10556;-33.662;151.094;2023-10-09T00:35:04;0.30;;;0.10;;
20792;SDS011;10556;-33.662;151.094;2023-10-09T00:40:05;1.50;;;0.20;;
20792;SDS011;10556;-33.662;151.094;2023-10-09T00:45:07;0.10;;;0.10;;
20792;SDS011;10556;-33.662;151.094;2023-10-09T00:50:10;1.17;;;0.13;;
20792;SDS011;10556;-33.662;151.094;2023-10-09T00:55:12;0.57;;;0.17;;
20792;SDS011;10556;-33.662;151.094;2023-10-09T01:00:13;0.43;;;0.10;;
20792;SDS011;10556;-33.662;151.094;2023-10-09T01:05:17;0.77;;;0.20;;
20792;SDS011;10556;-33.662;151.094;2023-10-09T01:10:18;1.00;;;0.20;;
20792;SDS011;10556;-33.662;151.094;2023-10-09T01:15:19;1.60;;;0.57;;
20792;SDS011;10556;-33.662;151.094;2023-10-09T01:20:24;0.67;;;0.20;;
20792;SDS011;10556;-33.662;151.094;2023-10-09T01:25:27;0.50;;;0.20;;
20792;SDS011;10556;-33.662;151.094;2023-10-09T01:30:28;0.60;;;0.30;;
20792;SDS011;10556;-33.662;151.094;2023-10-09T01:35:30;0.80;;;0.20;;
20792;SDS011;10556;-33.662;151.094;2023-10-09T01:40:33;0.70;;;0.30;;
20792;SDS011;10556;-33.662;151.094;2023-10-09T01:45:34;0.70;;;0.30;;
20792;SDS011;10556;-33.662;151.094;2023-10-09T01:50:35;0.27;;;0.20;;
20792;SDS011;10556;-33.662;151.094;2023-10-09T01:55:38;0.27;;;0.20;;
20792;SDS011;10556;-33.662;151.094;2023-10-09T02:00:39;0.50;;;0.20;;
20792;SDS011;10556;-33.662;151.094;2023-10-09T02:05:42;0.53;;;0.23;;
20792;SDS011;10556;-33.662;151.094;2023-10-09T02:10:45;0.47;;;0.10;;
20792;SDS011;10556;-33.662;151.094;2023-10-09T02:15:46;0.77;;;0.30;;
20792;SDS011;10556;-33.662;151.094;2023-10-09T02:20:47;1.30;;;0.30;;
20792;SDS011;10556;-33.662;151.094;2023-10-09T02:25:54;2.33;;;0.20;;
20792;SDS011;10556;-33.662;151.094;2023-10-09T02:30:59;0.70;;;0.27;;
20792;SDS011;10556;-33.662;151.094;2023-10-09T02:36:00;2.57;;;0.30;;
20792;SDS011;10556;-33.662;151.094;2023-10-09T02:41:03;0.57;;;0.20;;
20792;SDS011;10556;-33.662;151.094;2023-10-09T02:46:05;1.17;;;0.10;;
20792;SDS011;10556;-33.662;151.094;2023-10-09T02:51:06;1.35;;;0.30;;
20792;SDS011;10556;-33.662;151.094;2023-10-09T02:56:09;0.17;;;0.10;;
20792;SDS011;10556;-33.662;151.094;2023-10-09T03:01:13;0.43;;;0.20;;
20792;SDS011;10556;-33.662;151.094;2023-10-09T03:06:14;1.80;;;0.30;;
20792;SDS011;10556;-33.662;151.094;2023-10-09T03:11:17;1.77;;;0.30;;
20792;SDS011;10556;-33.662;151.094;2023-10-09T03:16:19;0.38;;;0.28;;
20792;SDS011;10556;-33.662;151.094;2023-10-09T03:21:20;0.60;;;0.30;;
20792;SDS011;10556;-33.662;151.094;2023-10-09T03:26:23;0.30;;;0.20;;
20792;SDS011;10556;-33.662;151.094;2023-10-09T03:31:24;0.28;;;0.20;;
20792;SDS011;10556;-33.662;151.094;2023-10-09T03:36:26;0.75;;;0.22;;
20792;SDS011;10556;-33.662;151.094;2023-10-09T03:41:29;0.10;;;0.10;;
20792;SDS011;10556;-33.662;151.094;2023-10-09T03:46:30;0.88;;;0.20;;
20792;SDS011;10556;-33.662;151.094;2023-10-09T03:51:31;0.20;;;0.15;;
20792;SDS011;10556;-33.662;151.094;2023-10-09T03:56:34;1.27;;;0.30;;
20792;SDS011;10556;-33.662;151.094;2023-10-09T04:01:36;0.20;;;0.10;;
20792;SDS011;10556;-33.662;151.094;2023-10-09T04:06:37;0.63;;;0.30;;
20792;SDS011;10556;-33.662;151.094;2023-10-09T04:11:40;1.10;;;0.30;;
20792;SDS011;10556;-33.662;151.094;2023-10-09T04:16:41;0.35;;;0.20;;
20792;SDS011;10556;-33.662;151.094;2023-10-09T04:21:43;0.45;;;0.15;;
20792;SDS011;10556;-33.662;151.094;2023-10-09T04:26:46;6.47;;;0.40;;
20792;SDS011;10556;-33.662;151.094;2023-10-09T04:31:47;1.00;;;0.45;;
20792;SDS011;10556;-33.662;151.094;2023-10-09T04:36:48;1.02;;;0.30;;
20792;SDS011;10556;-33.662;151.094;2023-10-09T04:41:51;1.63;;;0.40;;
20792;SDS011;10556;-33.662;151.094;2023-10-09T04:46:53;1.90;;;0.35;;
20792;SDS011;10556;-33.662;151.094;2023-10-09T04:51:54;2.17;;;0.47;;
20792;SDS011;10556;-33.662;151.094;2023-10-09T04:56:57;1.53;;;0.40;;
20792;SDS011;10556;-33.662;151.094;2023-10-09T05:01:58;1.50;;;0.50;;
20792;SDS011;10556;-33.662;151.094;2023-10-09T05:07:00;4.27;;;0.40;;
20792;SDS011;10556;-33.662;151.094;2023-10-09T05:12:03;1.93;;;0.50;;
20792;SDS011;10556;-33.662;151.094;2023-10-09T05:17:04;2.73;;;0.50;;
20792;SDS011;10556;-33.662;151.094;2023-10-09T05:22:06;1.53;;;0.40;;
20792;SDS011;10556;-33.662;151.094;2023-10-09T05:27:09;1.50;;;0.47;;
20792;SDS011;10556;-33.662;151.094;2023-10-09T05:32:10;1.10;;;0.40;;
20792;SDS011;10556;-33.662;151.094;2023-10-09T05:37:11;3.40;;;0.40;;
20792;SDS011;10556;-33.662;151.094;2023-10-09T05:42:14;1.27;;;0.30;;
20792;SDS011;10556;-33.662;151.094;2023-10-09T05:47:16;2.63;;;0.70;;
20792;SDS011;10556;-33.662;151.094;2023-10-09T05:52:17;6.53;;;0.70;;
20792;SDS011;10556;-33.662;151.094;2023-10-09T05:57:20;4.53;;;0.70;;
20792;SDS011;10556;-33.662;151.094;2023-10-09T06:02:21;4.77;;;0.80;;
20792;SDS011;10556;-33.662;151.094;2023-10-09T06:07:22;3.33;;;0.50;;
20792;SDS011;10556;-33.662;151.094;2023-10-09T06:12:25;2.57;;;0.60;;
20792;SDS011;10556;-33.662;151.094;2023-10-09T06:17:27;4.37;;;0.50;;
20792;SDS011;10556;-33.662;151.094;2023-10-09T06:22:28;2.07;;;0.30;;
20792;SDS011;10556;-33.662;151.094;2023-10-09T06:27:31;2.10;;;0.30;;
20792;SDS011;10556;-33.662;151.094;2023-10-09T06:32:32;1.43;;;0.40;;
20792;SDS011;10556;-33.662;151.094;2023-10-09T06:37:33;1.00;;;0.33;;
20792;SDS011;10556;-33.662;151.094;2023-10-09T06:42:36;5.40;;;0.60;;
20792;SDS011;10556;-33.662;151.094;2023-10-09T06:47:38;1.43;;;0.37;;
20792;SDS011;10556;-33.662;151.094;2023-10-09T06:52:39;1.40;;;0.30;;
20792;SDS011;10556;-33.662;151.094;2023-10-09T06:57:42;2.43;;;0.30;;
20792;SDS011;10556;-33.662;151.094;2023-10-09T07:02:43;1.57;;;0.40;;
20792;SDS011;10556;-33.662;151.094;2023-10-09T07:07:45;1.03;;;0.47;;
20792;SDS011;10556;-33.662;151.094;2023-10-09T07:12:48;5.27;;;0.60;;
20792;SDS011;10556;-33.662;151.094;2023-10-09T07:17:50;1.37;;;0.30;;
20792;SDS011;10556;-33.662;151.094;2023-10-09T07:22:51;3.20;;;0.40;;
20792;SDS011;10556;-33.662;151.094;2023-10-09T07:27:54;2.20;;;0.40;;
20792;SDS011;10556;-33.662;151.094;2023-10-09T07:32:56;2.93;;;0.90;;
20792;SDS011;10556;-33.662;151.094;2023-10-09T07:37:57;0.97;;;0.30;;
20792;SDS011;10556;-33.662;151.094;2023-10-09T07:43:00;4.03;;;0.43;;
20792;SDS011;10556;-33.662;151.094;2023-10-09T07:48:01;3.93;;;0.57;;
20792;SDS011;10556;-33.662;151.094;2023-10-09T07:53:03;2.60;;;1.07;;
20792;SDS011;10556;-33.662;151.094;2023-10-09T07:58:06;3.57;;;0.40;;
20792;SDS011;10556;-33.662;151.094;2023-10-09T08:03:07;1.43;;;0.50;;
20792;SDS011;10556;-33.662;151.094;2023-10-09T08:08:08;1.47;;;0.43;;
20792;SDS011;10556;-33.662;151.094;2023-10-09T08:13:11;1.67;;;0.30;;
20792;SDS011;10556;-33.662;151.094;2023-10-09T08:18:13;1.73;;;0.50;;
20792;SDS011;10556;-33.662;151.094;2023-10-09T08:23:14;1.53;;;0.30;;
20792;SDS011;10556;-33.662;151.094;2023-10-09T08:28:17;3.20;;;0.50;;
20792;SDS011;10556;-33.662;151.094;2023-10-09T08:33:18;4.10;;;0.40;;
20792;SDS011;10556;-33.662;151.094;2023-10-09T08:38:20;2.07;;;0.30;;
20792;SDS011;10556;-33.662;151.094;2023-10-09T08:43:23;1.80;;;0.60;;
20792;SDS011;10556;-33.662;151.094;2023-10-09T08:48:24;1.20;;;0.37;;
20792;SDS011;10556;-33.662;151.094;2023-10-09T08:53:26;1.33;;;0.43;;
20792;SDS011;10556;-33.662;151.094;2023-10-09T08:58:29;3.43;;;0.43;;
20792;SDS011;10556;-33.662;151.094;2023-10-09T09:03:37;1.43;;;0.20;;
20792;SDS011;10556;-33.662;151.094;2023-10-09T09:08:38;0.93;;;0.37;;
20792;SDS011;10556;-33.662;151.094;2023-10-09T09:13:42;1.20;;;0.30;;
20792;SDS011;10556;-33.662;151.094;2023-10-09T09:18:50;0.80;;;0.30;;
20792;SDS011;10556;-33.662;151.094;2023-10-09T09:23:55;4.50;;;0.50;;
20792;SDS011;10556;-33.662;151.094;2023-10-09T09:28:58;3.80;;;0.70;;
20792;SDS011;10556;-33.662;151.094;2023-10-09T09:33:59;2.83;;;0.40;;
20792;SDS011;10556;-33.662;151.094;2023-10-09T09:39:01;1.13;;;0.60;;
20792;SDS011;10556;-33.662;151.094;2023-10-09T09:44:04;2.77;;;0.67;;
20792;SDS011;10556;-33.662;151.094;2023-10-09T09:49:06;3.87;;;0.60;;
20792;SDS011;10556;-33.662;151.094;2023-10-09T09:54:07;4.70;;;0.60;;
20792;SDS011;10556;-33.662;151.094;2023-10-09T09:59:10;6.13;;;0.90;;
20792;SDS011;10556;-33.662;151.094;2023-10-09T10:04:12;3.10;;;0.67;;
20792;SDS011;10556;-33.662;151.094;2023-10-09T10:14:34;2.50;;;0.50;;
20792;SDS011;10556;-33.662;151.094;2023-10-09T10:20:05;2.90;;;0.60;;
20792;SDS011;10556;-33.662;151.094;2023-10-09T10:25:07;4.03;;;0.63;;
20792;SDS011;10556;-33.662;151.094;2023-10-09T10:35:25;0.63;;;0.30;;
20792;SDS011;10556;-33.662;151.094;2023-10-09T10:40:27;0.50;;;0.30;;
20792;SDS011;10556;-33.662;151.094;2023-10-09T10:45:28;1.97;;;0.20;;
20792;SDS011;10556;-33.662;151.094;2023-10-09T10:50:31;1.13;;;0.47;;
20792;SDS011;10556;-33.662;151.094;2023-10-09T10:55:33;1.10;;;0.27;;
20792;SDS011;10556;-33.662;151.094;2023-10-09T11:00:34;1.30;;;0.30;;
20792;SDS011;10556;-33.662;151.094;2023-10-09T11:05:37;1.57;;;0.30;;
20792;SDS011;10556;-33.662;151.094;2023-10-09T11:10:39;0.43;;;0.20;;
20792;SDS011;10556;-33.662;151.094;2023-10-09T11:15:41;1.57;;;0.30;;
20792;SDS011;10556;-33.662;151.094;2023-10-09T11:20:44;2.43;;;0.37;;
20792;SDS011;10556;-33.662;151.094;2023-10-09T11:25:45;2.17;;;0.40;;
20792;SDS011;10556;-33.662;151.094;2023-10-09T11:30:47;1.73;;;0.30;;
20792;SDS011;10556;-33.662;151.094;2023-10-09T11:35:57;2.63;;;0.53;;
20792;SDS011;10556;-33.662;151.094;2023-10-09T11:40:58;1.27;;;0.30;;
20792;SDS011;10556;-33.662;151.094;2023-10-09T11:46:12;0.63;;;0.20;;
20792;SDS011;10556;-33.662;151.094;2023-10-09T11:51:15;1.13;;;0.20;;
20792;SDS011;10556;-33.662;151.094;2023-10-09T11:56:16;1.63;;;0.40;;
20792;SDS011;10556;-33.662;151.094;2023-10-09T12:01:17;1.27;;;0.60;;
20792;SDS011;10556;-33.662;151.094;2023-10-09T12:06:21;0.80;;;0.23;;
20792;SDS011;10556;-33.662;151.094;2023-10-09T12:11:22;0.93;;;0.30;;
20792;SDS011;10556;-33.662;151.094;2023-10-09T12:16:23;3.30;;;0.50;;
20792;SDS011;10556;-33.662;151.094;2023-10-09T12:21:26;1.43;;;0.27;;
20792;SDS011;10556;-33.662;151.094;2023-10-09T12:26:28;0.33;;;0.30;;
20792;SDS011;10556;-33.662;151.094;2023-10-09T12:31:29;1.07;;;0.30;;
20792;SDS011;10556;-33.662;151.094;2023-10-09T12:36:32;1.37;;;0.37;;
20792;SDS011;10556;-33.662;151.094;2023-10-09T12:41:33;1.53;;;0.30;;
20792;SDS011;10556;-33.662;151.094;2023-10-09T12:46:36;1.47;;;0.33;;
20792;SDS011;10556;-33.662;151.094;2023-10-09T12:51:39;1.50;;;0.50;;
20792;SDS011;10556;-33.662;151.094;2023-10-09T12:56:40;3.43;;;0.60;;
20792;SDS011;10556;-33.662;151.094;2023-10-09T13:01:41;1.73;;;0.37;;
20792;SDS011;10556;-33.662;151.094;2023-10-09T13:06:45;0.53;;;0.27;;
20792;SDS011;10556;-33.662;151.094;2023-10-09T13:11:46;1.70;;;0.30;;
20792;SDS011;10556;-33.662;151.094;2023-10-09T13:16:47;0.43;;;0.30;;
20792;SDS011;10556;-33.662;151.094;2023-10-09T13:21:51;0.30;;;0.20;;
20792;SDS011;10556;-33.662;151.094;2023-10-09T13:26:52;0.50;;;0.20;;
20792;SDS011;10556;-33.662;151.094;2023-10-09T13:31:53;1.47;;;0.30;;
20792;SDS011;10556;-33.662;151.094;2023-10-09T13:36:56;1.10;;;0.20;;
20792;SDS011;10556;-33.662;151.094;2023-10-09T13:41:58;0.70;;;0.23;;
20792;SDS011;10556;-33.662;151.094;2023-10-09T13:47:00;1.50;;;0.40;;
20792;SDS011;10556;-33.662;151.094;2023-10-09T13:52:03;2.20;;;0.50;;
20792;SDS011;10556;-33.662;151.094;2023-10-09T13:57:05;1.47;;;0.40;;
20792;SDS011;10556;-33.662;151.094;2023-10-09T14:02:06;1.60;;;0.40;;
20792;SDS011;10556;-33.662;151.094;2023-10-09T14:07:09;1.07;;;0.30;;
20792;SDS011;10556;-33.662;151.094;2023-10-09T14:12:10;0.70;;;0.30;;
20792;SDS011;10556;-33.662;151.094;2023-10-09T14:17:12;1.37;;;0.40;;
20792;SDS011;10556;-33.662;151.094;2023-10-09T14:22:15;3.23;;;0.40;;
20792;SDS011;10556;-33.662;151.094;2023-10-09T14:27:17;1.23;;;0.27;;
20792;SDS011;10556;-33.662;151.094;2023-10-09T14:32:18;2.80;;;0.40;;
20792;SDS011;10556;-33.662;151.094;2023-10-09T14:37:21;1.57;;;0.57;;
20792;SDS011;10556;-33.662;151.094;2023-10-09T14:42:22;2.80;;;0.37;;
20792;SDS011;10556;-33.662;151.094;2023-10-09T14:47:23;0.60;;;0.30;;
20792;SDS011;10556;-33.662;151.094;2023-10-09T14:52:26;1.50;;;0.30;;
20792;SDS011;10556;-33.662;151.094;2023-10-09T14:57:28;1.97;;;0.50;;
20792;SDS011;10556;-33.662;151.094;2023-10-09T15:02:29;2.47;;;0.60;;
20792;SDS011;10556;-33.662;151.094;2023-10-09T15:07:32;1.63;;;0.50;;
20792;SDS011;10556;-33.662;151.094;2023-10-09T15:12:34;1.50;;;0.40;;
20792;SDS011;10556;-33.662;151.094;2023-10-09T15:17:35;1.73;;;0.40;;
20792;SDS011;10556;-33.662;151.094;2023-10-09T15:22:38;1.20;;;0.30;;
20792;SDS011;10556;-33.662;151.094;2023-10-09T15:27:39;1.70;;;0.40;;
20792;SDS011;10556;-33.662;151.094;2023-10-09T15:32:41;3.27;;;0.50;;
20792;SDS011;10556;-33.662;151.094;2023-10-09T15:37:44;2.13;;;0.60;;
20792;SDS011;10556;-33.662;151.094;2023-10-09T15:42:45;2.43;;;0.43;;
20792;SDS011;10556;-33.662;151.094;2023-10-09T15:47:46;2.83;;;0.70;;
20792;SDS011;10556;-33.662;151.094;2023-10-09T15:52:50;1.33;;;0.53;;
20792;SDS011;10556;-33.662;151.094;2023-10-09T15:57:52;1.53;;;0.50;;
20792;SDS011;10556;-33.662;151.094;2023-10-09T16:02:53;5.07;;;0.90;;
20792;SDS011;10556;-33.662;151.094;2023-10-09T16:07:57;3.67;;;0.70;;
20792;SDS011;10556;-33.662;151.094;2023-10-09T16:12:58;2.57;;;0.70;;
20792;SDS011;10556;-33.662;151.094;2023-10-09T16:17:59;2.77;;;0.80;;
20792;SDS011;10556;-33.662;151.094;2023-10-09T16:23:02;6.47;;;0.80;;
20792;SDS011;10556;-33.662;151.094;2023-10-09T16:28:04;4.77;;;1.27;;
20792;SDS011;10556;-33.662;151.094;2023-10-09T16:33:05;4.47;;;1.20;;
20792;SDS011;10556;-33.662;151.094;2023-10-09T16:38:08;2.07;;;1.10;;
20792;SDS011;10556;-33.662;151.094;2023-10-09T16:43:09;3.67;;;1.00;;
20792;SDS011;10556;-33.662;151.094;2023-10-09T16:48:11;4.73;;;1.07;;
20792;SDS011;10556;-33.662;151.094;2023-10-09T16:53:14;5.13;;;1.13;;
20792;SDS011;10556;-33.662;151.094;2023-10-09T16:58:25;3.70;;;1.10;;
20792;SDS011;10556;-33.662;151.094;2023-10-09T17:03:26;5.70;;;1.20;;
20792;SDS011;10556;-33.662;151.094;2023-10-09T17:08:29;3.67;;;1.20;;
20792;SDS011;10556;-33.662;151.094;2023-10-09T17:13:31;4.20;;;1.10;;
20792;SDS011;10556;-33.662;151.094;2023-10-09T17:18:32;2.73;;;0.90;;
20792;SDS011;10556;-33.662;151.094;2023-10-09T17:23:35;6.03;;;1.10;;
20792;SDS011;10556;-33.662;151.094;2023-10-09T17:28:36;2.20;;;0.90;;
20792;SDS011;10556;-33.662;151.094;2023-10-09T17:33:38;3.43;;;0.90;;
20792;SDS011;10556;-33.662;151.094;2023-10-09T17:38:41;2.67;;;1.07;;
20792;SDS011;10556;-33.662;151.094;2023-10-09T17:43:42;6.30;;;1.23;;
20792;SDS011;10556;-33.662;151.094;2023-10-09T17:48:44;2.33;;;0.80;;
20792;SDS011;10556;-33.662;151.094;2023-10-09T17:53:47;1.27;;;0.60;;
20792;SDS011;10556;-33.662;151.094;2023-10-09T17:58:48;5.13;;;0.90;;
20792;SDS011;10556;-33.662;151.094;2023-10-09T18:03:49;3.17;;;1.30;;
20792;SDS011;10556;-33.662;151.094;2023-10-09T18:08:52;3.33;;;0.83;;
20792;SDS011;10556;-33.662;151.094;2023-10-09T18:13:54;3.87;;;0.80;;
20792;SDS011;10556;-33.662;151.094;2023-10-09T18:18:55;5.07;;;0.83;;
20792;SDS011;10556;-33.662;151.094;2023-10-09T18:23:58;3.30;;;0.90;;
20792;SDS011;10556;-33.662;151.094;2023-10-09T18:28:59;3.73;;;0.80;;
20792;SDS011;10556;-33.662;151.094;2023-10-09T18:34:00;3.23;;;0.83;;
20792;SDS011;10556;-33.662;151.094;2023-10-09T18:39:04;3.50;;;1.13;;
20792;SDS011;10556;-33.662;151.094;2023-10-09T18:44:05;5.17;;;1.23;;
20792;SDS011;10556;-33.662;151.094;2023-10-09T18:49:06;2.47;;;0.80;;
20792;SDS011;10556;-33.662;151.094;2023-10-09T18:54:09;5.30;;;1.00;;
20792;SDS011;10556;-33.662;151.094;2023-10-09T18:59:11;6.53;;;2.03;;
20792;SDS011;10556;-33.662;151.094;2023-10-09T19:04:12;3.20;;;0.90;;
20792;SDS011;10556;-33.662;151.094;2023-10-09T19:09:15;6.70;;;1.27;;
20792;SDS011;10556;-33.662;151.094;2023-10-09T19:14:16;2.70;;;0.70;;
20792;SDS011;10556;-33.662;151.094;2023-10-09T19:19:17;4.47;;;1.00;;
20792;SDS011;10556;-33.662;151.094;2023-10-09T19:24:21;2.17;;;0.77;;
20792;SDS011;10556;-33.662;151.094;2023-10-09T19:29:22;3.47;;;0.80;;
20792;SDS011;10556;-33.662;151.094;2023-10-09T19:34:23;2.33;;;0.83;;
20792;SDS011;10556;-33.662;151.094;2023-10-09T19:39:26;2.53;;;0.83;;
20792;SDS011;10556;-33.662;151.094;2023-10-09T19:44:27;1.53;;;1.00;;
20792;SDS011;10556;-33.662;151.094;2023-10-09T19:49:29;6.93;;;1.33;;
20792;SDS011;10556;-33.662;151.094;2023-10-09T19:54:32;1.53;;;0.90;;
20792;SDS011;10556;-33.662;151.094;2023-10-09T19:59:33;4.63;;;1.13;;
20792;SDS011;10556;-33.662;151.094;2023-10-09T20:04:34;3.73;;;1.00;;
20792;SDS011;10556;-33.662;151.094;2023-10-09T20:09:38;2.27;;;0.93;;
20792;SDS011;10556;-33.662;151.094;2023-10-09T20:14:39;3.33;;;0.73;;
20792;SDS011;10556;-33.662;151.094;2023-10-09T20:19:40;3.53;;;0.90;;
20792;SDS011;10556;-33.662;151.094;2023-10-09T20:24:43;4.33;;;1.10;;
20792;SDS011;10556;-33.662;151.094;2023-10-09T20:29:44;3.50;;;0.77;;
20792;SDS011;10556;-33.662;151.094;2023-10-09T20:40:07;1.50;;;0.80;;
20792;SDS011;10556;-33.662;151.094;2023-10-09T20:45:09;1.47;;;0.73;;
20792;SDS011;10556;-33.662;151.094;2023-10-09T20:50:10;3.30;;;0.80;;
20792;SDS011;10556;-33.662;151.094;2023-10-09T20:55:14;0.90;;;0.43;;
20792;SDS011;10556;-33.662;151.094;2023-10-09T21:00:16;1.60;;;0.50;;
20792;SDS011;10556;-33.662;151.094;2023-10-09T21:05:17;1.63;;;0.67;;
20792;SDS011;10556;-33.662;151.094;2023-10-09T21:10:21;1.83;;;0.43;;
20792;SDS011;10556;-33.662;151.094;2023-10-09T21:15:23;2.43;;;0.50;;
20792;SDS011;10556;-33.662;151.094;2023-10-09T21:20:24;0.67;;;0.40;;
20792;SDS011;10556;-33.662;151.094;2023-10-09T21:25:27;1.80;;;0.60;;
20792;SDS011;10556;-33.662;151.094;2023-10-09T21:30:29;2.57;;;0.80;;
20792;SDS011;10556;-33.662;151.094;2023-10-09T21:35:30;1.57;;;0.60;;
20792;SDS011;10556;-33.662;151.094;2023-10-09T21:40:34;0.77;;;0.60;;
20792;SDS011;10556;-33.662;151.094;2023-10-09T21:45:36;2.00;;;0.50;;
20792;SDS011;10556;-33.662;151.094;2023-10-09T21:50:38;1.63;;;0.70;;
20792;SDS011;10556;-33.662;151.094;2023-10-09T21:55:41;1.10;;;0.60;;
20792;SDS011;10556;-33.662;151.094;2023-10-09T22:00:43;1.67;;;0.70;;
20792;SDS011;10556;-33.662;151.094;2023-10-09T22:05:44;1.90;;;0.60;;
20792;SDS011;10556;-33.662;151.094;2023-10-09T22:10:47;2.53;;;0.70;;
20792;SDS011;10556;-33.662;151.094;2023-10-09T22:15:49;2.13;;;0.97;;
20792;SDS011;10556;-33.662;151.094;2023-10-09T22:20:51;3.30;;;1.37;;
20792;SDS011;10556;-33.662;151.094;2023-10-09T22:25:54;3.20;;;1.37;;
20792;SDS011;10556;-33.662;151.094;2023-10-09T22:30:56;5.57;;;1.40;;
20792;SDS011;10556;-33.662;151.094;2023-10-09T22:35:57;6.43;;;1.43;;
20792;SDS011;10556;-33.662;151.094;2023-10-09T22:41:00;3.00;;;1.20;;
20792;SDS011;10556;-33.662;151.094;2023-10-09T22:46:02;2.63;;;1.00;;
20792;SDS011;10556;-33.662;151.094;2023-10-09T22:51:03;1.60;;;1.00;;
20792;SDS011;10556;-33.662;151.094;2023-10-09T22:56:07;2.63;;;1.20;;
20792;SDS011;10556;-33.662;151.094;2023-10-09T23:01:09;1.50;;;0.83;;
20792;SDS011;10556;-33.662;151.094;2023-10-09T23:06:10;1.93;;;0.90;;
20792;SDS011;10556;-33.662;151.094;2023-10-09T23:11:14;2.27;;;1.10;;
20792;SDS011;10556;-33.662;151.094;2023-10-09T23:16:15;2.77;;;1.20;;
20792;SDS011;10556;-33.662;151.094;2023-10-09T23:21:16;3.77;;;1.00;;
20792;SDS011;10556;-33.662;151.094;2023-10-09T23:26:20;2.07;;;0.97;;
20792;SDS011;10556;-33.662;151.094;2023-10-09T23:31:21;3.80;;;0.90;;
20792;SDS011;10556;-33.662;151.094;2023-10-09T23:36:23;2.37;;;1.07;;
20792;SDS011;10556;-33.662;151.094;2023-10-09T23:41:26;3.37;;;1.07;;
20792;SDS011;10556;-33.662;151.094;2023-10-09T23:46:27;1.70;;;0.80;;
20792;SDS011;10556;-33.662;151.094;2023-10-09T23:51:28;2.77;;;1.20;;
20792;SDS011;10556;-33.662;151.094;2023-10-09T23:56:32;2.27;;;1.00;;
